CheckWX is a tool to help pilots better visualize weather data.  It is not intended as a substitute for an official pre-flight weather briefing.

11:10:56 UTC

KAXX METAR
Angel Fire Airport
Angel Fire, New Mexico, USA
Current

16 mins ago

KAXX 161055Z AUTO 00000KT 5SM BR 08/08 A3039 RMK AO2 T00820077
Observed
Jul-16 @ 10:55 UTC
Visibility
5 SM
Conditions
Mist
Temperature
C / 46°F
Dewpoint
C / 46°F
Humidity
100%
Altimeter
30.39" Hg
Pressure
1029.12 hPa
Previous

36 mins ago

KAXX 161035Z AUTO 28003KT 10SM 08/08 A3038 RMK AO2 T00820076
Observed
Jul-16 @ 10:35 UTC
Wind
  • 280° at 3 KTS
Visibility
10 SM
Temperature
C / 46°F
Dewpoint
C / 46°F
Humidity
100%
Altimeter
30.38" Hg
Pressure
1028.82 hPa
Previous

56 mins ago

KAXX 161015Z AUTO 00000KT 10SM 10/09 A3038 RMK AO2 T00970091
Observed
Jul-16 @ 10:15 UTC
Visibility
10 SM
Temperature
10°C / 50°F
Dewpoint
C / 48°F
Humidity
94%
Altimeter
30.38" Hg
Pressure
1028.82 hPa